PWSweather.com
Personal Weather Stations
Station Observations
SUBOTICARS
SuboticaYU

SuboticaYU

Lat: 46.1296717, Lon: 19.641551

Elevation: 361

Station Type: Nexus

http://sumeteo.info

High Low Average
Temperature 41.5°F5.3°C 27.4°F-2.6°C 33.0°F0.6°C
Dew Point 35.2°F1.8°C 24.1°F-4.4°C 29.1°F-1.6°C
Winds 5.8 mph 9.3 kmh Calm Calm 3.0 mph SW4.8 kmh SW
Wind Gusts 8.1 mph13.0 kmh -- 3.0 mph4.8 kmh
Humidity 94% 74% 86%
Pressure 29.40 in995.6 mb 29.31 in992.6 mb -
Precipitation 0.01 in0.3 mm - -
Hour Temp Dew Point Humidity Winds Wind Gusts Pressure Precip Precip Rate Daily Precip Total
12:00 AM 27.4°F-2.6°C 24.1°F-4.4°C 87% 3.5 mph SW5.6 kmh SW 4.6 mph7.4 kmh 29.40 in995.6 mb - 0.00 in0.0 mm 0.00 in0.0 mm
12:10 AM 27.7°F-2.4°C 24.3°F-4.3°C 87% 3.5 mph SW5.6 kmh SW 3.5 mph5.6 kmh 29.39 in995.3 mb - 0.00 in0.0 mm 0.00 in0.0 mm
12:15 AM 27.9°F-2.3°C 24.8°F-4.0°C 88% 3.5 mph WSW5.6 kmh WSW 3.5 mph5.6 kmh 29.39 in995.3 mb - 0.00 in0.0 mm 0.00 in0.0 mm
12:20 AM 27.9°F-2.3°C 24.8°F-4.0°C 88% 2.3 mph WSW3.7 kmh WSW 3.5 mph5.6 kmh 29.38 in994.9 mb - 0.00 in0.0 mm 0.00 in0.0 mm
12:25 AM 28.0°F-2.2°C 24.9°F-3.9°C 88% 3.5 mph SSW5.6 kmh SSW 4.6 mph7.4 kmh 29.38 in994.9 mb - 0.00 in0.0 mm 0.00 in0.0 mm
12:30 AM 28.0°F-2.2°C 24.9°F-3.9°C 88% 3.5 mph SW5.6 kmh SW 3.5 mph5.6 kmh 29.38 in994.9 mb - 0.00 in0.0 mm 0.00 in0.0 mm
12:35 AM 28.0°F-2.2°C 24.9°F-3.9°C 88% 4.6 mph WSW7.4 kmh WSW 3.5 mph5.6 kmh 29.38 in994.9 mb - 0.00 in0.0 mm 0.00 in0.0 mm
12:40 AM 28.2°F-2.1°C 25.1°F-3.8°C 88% 4.6 mph SW7.4 kmh SW 5.8 mph9.3 kmh 29.38 in994.9 mb - 0.00 in0.0 mm 0.00 in0.0 mm
12:45 AM 28.2°F-2.1°C 25.1°F-3.8°C 88% 3.5 mph WSW5.6 kmh WSW 3.5 mph5.6 kmh 29.38 in994.9 mb - 0.00 in0.0 mm 0.00 in0.0 mm
12:50 AM 28.2°F-2.1°C 25.1°F-3.8°C 88% 3.5 mph SW5.6 kmh SW 5.8 mph9.3 kmh 29.39 in995.3 mb - 0.00 in0.0 mm 0.00 in0.0 mm
12:55 AM 28.4°F-2.0°C 25.3°F-3.7°C 88% 4.6 mph WSW7.4 kmh WSW 4.6 mph7.4 kmh 29.39 in995.3 mb - 0.00 in0.0 mm 0.00 in0.0 mm
01:00 AM 28.6°F-1.9°C 25.5°F-3.6°C 88% 3.5 mph WSW5.6 kmh WSW 3.5 mph5.6 kmh 29.38 in994.9 mb - 0.00 in0.0 mm 0.00 in0.0 mm
01:10 AM 28.8°F-1.8°C 25.7°F-3.5°C 88% 3.5 mph WSW5.6 kmh WSW 4.6 mph7.4 kmh 29.38 in994.9 mb - 0.00 in0.0 mm 0.00 in0.0 mm
01:15 AM 28.8°F-1.8°C 25.7°F-3.5°C 88% 3.5 mph SSW5.6 kmh SSW 3.5 mph5.6 kmh 29.38 in994.9 mb - 0.00 in0.0 mm 0.00 in0.0 mm
01:20 AM 28.9°F-1.7°C 25.8°F-3.4°C 88% 3.5 mph SW5.6 kmh SW 4.6 mph7.4 kmh 29.38 in994.9 mb - 0.00 in0.0 mm 0.00 in0.0 mm
01:25 AM 29.1°F-1.6°C 26.0°F-3.3°C 88% 3.5 mph WSW5.6 kmh WSW 4.6 mph7.4 kmh 29.38 in994.9 mb - 0.00 in0.0 mm 0.00 in0.0 mm
01:30 AM 29.1°F-1.6°C 26.0°F-3.3°C 88% 3.5 mph WSW5.6 kmh WSW 3.5 mph5.6 kmh 29.38 in994.9 mb - 0.00 in0.0 mm 0.00 in0.0 mm
01:35 AM 29.2°F-1.6°C 26.0°F-3.3°C 88% 2.3 mph SW3.7 kmh SW 3.5 mph5.6 kmh 29.38 in994.9 mb - 0.00 in0.0 mm 0.00 in0.0 mm
01:40 AM 29.3°F-1.5°C 26.2°F-3.2°C 88% 3.5 mph SW5.6 kmh SW 4.6 mph7.4 kmh 29.38 in994.9 mb - 0.00 in0.0 mm 0.00 in0.0 mm
01:45 AM 29.5°F-1.4°C 26.4°F-3.1°C 88% 3.5 mph WSW5.6 kmh WSW 5.8 mph9.3 kmh 29.38 in994.9 mb - 0.00 in0.0 mm 0.00 in0.0 mm
01:50 AM 29.8°F-1.2°C 27.0°F-2.8°C 89% 4.6 mph SW7.4 kmh SW 4.6 mph7.4 kmh 29.38 in994.9 mb - 0.00 in0.0 mm 0.00 in0.0 mm
01:55 AM 30.0°F-1.1°C 27.2°F-2.7°C 89% 4.6 mph SSW7.4 kmh SSW 3.5 mph5.6 kmh 29.38 in994.9 mb - 0.00 in0.0 mm 0.00 in0.0 mm
02:00 AM 30.1°F-1.1°C 27.3°F-2.6°C 89% 3.5 mph SSW5.6 kmh SSW 4.6 mph7.4 kmh 29.38 in994.9 mb - 0.00 in0.0 mm 0.00 in0.0 mm
02:10 AM 30.4°F-0.9°C 27.5°F-2.5°C 89% 5.8 mph SSW9.3 kmh SSW 4.6 mph7.4 kmh 29.37 in994.6 mb - 0.00 in0.0 mm 0.00 in0.0 mm
02:15 AM 30.6°F-0.8°C 27.7°F-2.4°C 89% 5.8 mph SW9.3 kmh SW 5.8 mph9.3 kmh 29.37 in994.6 mb - 0.00 in0.0 mm 0.00 in0.0 mm
02:20 AM 30.6°F-0.8°C 27.7°F-2.4°C 89% 4.6 mph SSW7.4 kmh SSW 5.8 mph9.3 kmh 29.36 in994.2 mb - 0.00 in0.0 mm 0.00 in0.0 mm
02:25 AM 30.7°F-0.7°C 27.9°F-2.3°C 89% 4.6 mph SW7.4 kmh SW 6.9 mph11.1 kmh 29.36 in994.2 mb - 0.00 in0.0 mm 0.00 in0.0 mm
02:30 AM 30.7°F-0.7°C 27.9°F-2.3°C 89% 5.8 mph SW9.3 kmh SW 8.1 mph13.0 kmh 29.36 in994.2 mb - 0.00 in0.0 mm 0.00 in0.0 mm
02:35 AM 30.9°F-0.6°C 28.1°F-2.2°C 89% 5.8 mph WSW9.3 kmh WSW 5.8 mph9.3 kmh 29.36 in994.2 mb - 0.00 in0.0 mm 0.00 in0.0 mm
02:40 AM 30.6°F-0.8°C 28.0°F-2.2°C 90% 4.6 mph SSW7.4 kmh SSW 4.6 mph7.4 kmh 29.36 in994.2 mb - 0.00 in0.0 mm 0.00 in0.0 mm
02:45 AM 30.6°F-0.8°C 28.0°F-2.2°C 90% 4.6 mph WSW7.4 kmh WSW 8.1 mph13.0 kmh 29.36 in994.2 mb - 0.00 in0.0 mm 0.00 in0.0 mm
02:50 AM 30.6°F-0.8°C 28.0°F-2.2°C 90% 5.8 mph SW9.3 kmh SW 8.1 mph13.0 kmh 29.37 in994.6 mb - 0.00 in0.0 mm 0.00 in0.0 mm
02:55 AM 30.7°F-0.7°C 28.1°F-2.2°C 90% 5.8 mph WSW9.3 kmh WSW 5.8 mph9.3 kmh 29.37 in994.6 mb - 0.00 in0.0 mm 0.00 in0.0 mm
03:00 AM 30.6°F-0.8°C 28.1°F-2.2°C 90% 4.6 mph W7.4 kmh W 4.6 mph7.4 kmh 29.37 in994.6 mb - 0.00 in0.0 mm 0.00 in0.0 mm
03:10 AM 30.6°F-0.8°C 28.0°F-2.2°C 90% 4.6 mph SW7.4 kmh SW 4.6 mph7.4 kmh 29.36 in994.2 mb - 0.00 in0.0 mm 0.00 in0.0 mm
03:15 AM 30.6°F-0.8°C 28.0°F-2.2°C 90% 4.6 mph SW7.4 kmh SW 5.8 mph9.3 kmh 29.36 in994.2 mb - 0.00 in0.0 mm 0.00 in0.0 mm
03:20 AM 30.6°F-0.8°C 28.0°F-2.2°C 90% 3.5 mph SW5.6 kmh SW 3.5 mph5.6 kmh 29.35 in993.9 mb - 0.00 in0.0 mm 0.00 in0.0 mm
03:25 AM 30.5°F-0.8°C 27.9°F-2.3°C 90% 2.3 mph WNW3.7 kmh WNW 2.3 mph3.7 kmh 29.35 in993.9 mb - 0.00 in0.0 mm 0.00 in0.0 mm
03:30 AM 30.6°F-0.8°C 28.0°F-2.2°C 90% 3.5 mph SW5.6 kmh SW 3.5 mph5.6 kmh 29.36 in994.2 mb - 0.00 in0.0 mm 0.00 in0.0 mm
03:35 AM 30.6°F-0.8°C 27.7°F-2.4°C 89% 3.5 mph WSW5.6 kmh WSW 3.5 mph5.6 kmh 29.36 in994.2 mb - 0.00 in0.0 mm 0.00 in0.0 mm
03:40 AM 30.7°F-0.7°C 27.9°F-2.3°C 89% 3.5 mph W5.6 kmh W 3.5 mph5.6 kmh 29.36 in994.2 mb - 0.00 in0.0 mm 0.00 in0.0 mm
03:45 AM 30.7°F-0.7°C 27.9°F-2.3°C 89% 2.3 mph WSW3.7 kmh WSW 3.5 mph5.6 kmh 29.36 in994.2 mb - 0.00 in0.0 mm 0.00 in0.0 mm
03:50 AM 30.7°F-0.7°C 27.9°F-2.3°C 89% 2.3 mph WSW3.7 kmh WSW 2.3 mph3.7 kmh 29.36 in994.2 mb - 0.00 in0.0 mm 0.00 in0.0 mm
03:55 AM 30.9°F-0.6°C 28.1°F-2.2°C 89% 2.3 mph WNW3.7 kmh WNW 2.3 mph3.7 kmh 29.36 in994.2 mb - 0.00 in0.0 mm 0.00 in0.0 mm
04:00 AM 30.9°F-0.6°C 28.1°F-2.2°C 89% 3.5 mph WNW5.6 kmh WNW 4.6 mph7.4 kmh 29.35 in993.9 mb - 0.00 in0.0 mm 0.00 in0.0 mm
04:10 AM 31.3°F-0.4°C 28.4°F-2.0°C 89% 2.3 mph WNW3.7 kmh WNW 3.5 mph5.6 kmh 29.35 in993.9 mb - 0.00 in0.0 mm 0.00 in0.0 mm
04:15 AM 31.3°F-0.4°C 28.4°F-2.0°C 89% 1.2 mph WSW1.9 kmh WSW 2.3 mph3.7 kmh 29.35 in993.9 mb - 0.00 in0.0 mm 0.00 in0.0 mm
04:20 AM 31.3°F-0.4°C 28.4°F-2.0°C 89% 2.3 mph WSW3.7 kmh WSW 2.3 mph3.7 kmh 29.35 in993.9 mb - 0.00 in0.0 mm 0.00 in0.0 mm
04:25 AM 31.3°F-0.4°C 28.4°F-2.0°C 89% 1.2 mph SSW1.9 kmh SSW 2.3 mph3.7 kmh 29.35 in993.9 mb - 0.00 in0.0 mm 0.00 in0.0 mm
04:30 AM 31.3°F-0.4°C 28.4°F-2.0°C 89% 2.3 mph SSW3.7 kmh SSW 2.3 mph3.7 kmh 29.34 in993.6 mb - 0.00 in0.0 mm 0.00 in0.0 mm
04:35 AM 31.3°F-0.4°C 28.4°F-2.0°C 89% 3.5 mph SSW5.6 kmh SSW 3.5 mph5.6 kmh 29.34 in993.6 mb - 0.00 in0.0 mm 0.00 in0.0 mm
04:40 AM 31.3°F-0.4°C 28.4°F-2.0°C 89% 3.5 mph SW5.6 kmh SW 3.5 mph5.6 kmh 29.34 in993.6 mb - 0.00 in0.0 mm 0.00 in0.0 mm
04:45 AM 31.3°F-0.4°C 28.4°F-2.0°C 89% 4.6 mph SSW7.4 kmh SSW 5.8 mph9.3 kmh 29.34 in993.6 mb - 0.00 in0.0 mm 0.00 in0.0 mm
04:50 AM 31.1°F-0.5°C 28.3°F-2.1°C 89% 3.5 mph SW5.6 kmh SW 3.5 mph5.6 kmh 29.34 in993.6 mb - 0.00 in0.0 mm 0.00 in0.0 mm
04:55 AM 31.1°F-0.5°C 28.2°F-2.1°C 89% 2.3 mph SSW3.7 kmh SSW 3.5 mph5.6 kmh 29.34 in993.6 mb - 0.00 in0.0 mm 0.00 in0.0 mm
05:00 AM 30.9°F-0.6°C 28.1°F-2.2°C 89% 2.3 mph SSW3.7 kmh SSW 2.3 mph3.7 kmh 29.33 in993.2 mb - 0.00 in0.0 mm 0.00 in0.0 mm
05:10 AM 30.7°F-0.7°C 27.9°F-2.3°C 89% 3.5 mph SSW5.6 kmh SSW 3.5 mph5.6 kmh 29.32 in992.9 mb - 0.00 in0.0 mm 0.00 in0.0 mm
05:15 AM 30.6°F-0.8°C 27.7°F-2.4°C 89% 3.5 mph SSW5.6 kmh SSW 4.6 mph7.4 kmh 29.32 in992.9 mb - 0.00 in0.0 mm 0.00 in0.0 mm
05:20 AM 30.6°F-0.8°C 27.7°F-2.4°C 89% 4.6 mph SSW7.4 kmh SSW 5.8 mph9.3 kmh 29.32 in992.9 mb - 0.00 in0.0 mm 0.00 in0.0 mm
05:25 AM 30.6°F-0.8°C 27.7°F-2.4°C 89% 4.6 mph SW7.4 kmh SW 4.6 mph7.4 kmh 29.32 in992.9 mb - 0.00 in0.0 mm 0.00 in0.0 mm
05:30 AM 30.6°F-0.8°C 27.7°F-2.4°C 89% 3.5 mph WSW5.6 kmh WSW 4.6 mph7.4 kmh 29.32 in992.9 mb - 0.00 in0.0 mm 0.00 in0.0 mm
05:35 AM 30.6°F-0.8°C 27.7°F-2.4°C 89% 3.5 mph SW5.6 kmh SW 3.5 mph5.6 kmh 29.32 in992.9 mb - 0.00 in0.0 mm 0.00 in0.0 mm
05:40 AM 30.6°F-0.8°C 27.7°F-2.4°C 89% 3.5 mph WSW5.6 kmh WSW 3.5 mph5.6 kmh 29.32 in992.9 mb - 0.00 in0.0 mm 0.00 in0.0 mm
05:45 AM 30.6°F-0.8°C 27.7°F-2.4°C 89% 4.6 mph WSW7.4 kmh WSW 3.5 mph5.6 kmh 29.32 in992.9 mb - 0.00 in0.0 mm 0.00 in0.0 mm
05:50 AM 30.6°F-0.8°C 27.7°F-2.4°C 89% 4.6 mph SW7.4 kmh SW 4.6 mph7.4 kmh 29.33 in993.2 mb - 0.00 in0.0 mm 0.00 in0.0 mm
05:55 AM 30.6°F-0.8°C 28.0°F-2.2°C 90% 4.6 mph WSW7.4 kmh WSW 5.8 mph9.3 kmh 29.33 in993.2 mb - 0.00 in0.0 mm 0.00 in0.0 mm
06:00 AM 30.6°F-0.8°C 28.0°F-2.2°C 90% 5.8 mph SW9.3 kmh SW 5.8 mph9.3 kmh 29.32 in992.9 mb - 0.00 in0.0 mm 0.00 in0.0 mm
06:10 AM 30.7°F-0.7°C 28.2°F-2.1°C 90% 4.6 mph SSW7.4 kmh SSW 4.6 mph7.4 kmh 29.32 in992.9 mb - 0.00 in0.0 mm 0.00 in0.0 mm
06:15 AM 30.7°F-0.7°C 28.2°F-2.1°C 90% 3.5 mph SW5.6 kmh SW 3.5 mph5.6 kmh 29.32 in992.9 mb - 0.00 in0.0 mm 0.00 in0.0 mm
06:20 AM 30.6°F-0.8°C 28.0°F-2.2°C 90% 3.5 mph WSW5.6 kmh WSW 5.8 mph9.3 kmh 29.32 in992.9 mb - 0.00 in0.0 mm 0.00 in0.0 mm
06:25 AM 30.7°F-0.7°C 28.2°F-2.1°C 90% 3.5 mph WSW5.6 kmh WSW 4.6 mph7.4 kmh 29.32 in992.9 mb - 0.00 in0.0 mm 0.00 in0.0 mm
06:30 AM 30.7°F-0.7°C 28.2°F-2.1°C 90% 4.6 mph WSW7.4 kmh WSW 5.8 mph9.3 kmh 29.32 in992.9 mb - 0.00 in0.0 mm 0.00 in0.0 mm
06:35 AM 30.7°F-0.7°C 28.2°F-2.1°C 90% 4.6 mph SW7.4 kmh SW 5.8 mph9.3 kmh 29.32 in992.9 mb - 0.00 in0.0 mm 0.00 in0.0 mm
06:40 AM 30.7°F-0.7°C 28.2°F-2.1°C 90% 3.5 mph WSW5.6 kmh WSW 4.6 mph7.4 kmh 29.32 in992.9 mb - 0.00 in0.0 mm 0.00 in0.0 mm
06:45 AM 30.7°F-0.7°C 28.2°F-2.1°C 90% 3.5 mph WSW5.6 kmh WSW 4.6 mph7.4 kmh 29.32 in992.9 mb - 0.00 in0.0 mm 0.00 in0.0 mm
06:50 AM 30.7°F-0.7°C 28.2°F-2.1°C 90% 4.6 mph SW7.4 kmh SW 4.6 mph7.4 kmh 29.33 in993.2 mb - 0.00 in0.0 mm 0.00 in0.0 mm
06:55 AM 30.7°F-0.7°C 27.8°F-2.3°C 89% 2.3 mph WNW3.7 kmh WNW 2.3 mph3.7 kmh 29.33 in993.2 mb - 0.00 in0.0 mm 0.00 in0.0 mm
07:00 AM 30.6°F-0.8°C 27.7°F-2.4°C 89% 2.3 mph WNW3.7 kmh WNW 3.5 mph5.6 kmh 29.33 in993.2 mb - 0.00 in0.0 mm 0.00 in0.0 mm
07:10 AM 30.4°F-0.9°C 27.5°F-2.5°C 89% 1.2 mph NW1.9 kmh NW 2.3 mph3.7 kmh 29.33 in993.2 mb - 0.00 in0.0 mm 0.00 in0.0 mm
07:15 AM 30.2°F-1.0°C 27.3°F-2.6°C 89% 2.3 mph NW3.7 kmh NW 2.3 mph3.7 kmh 29.33 in993.2 mb - 0.00 in0.0 mm 0.00 in0.0 mm
07:20 AM 30.1°F-1.1°C 27.5°F-2.5°C 90% 2.3 mph NNW3.7 kmh NNW 2.3 mph3.7 kmh 29.33 in993.2 mb - 0.00 in0.0 mm 0.00 in0.0 mm
07:25 AM 30.0°F-1.1°C 27.4°F-2.6°C 90% Calm Calm -- 29.33 in993.2 mb - 0.00 in0.0 mm 0.00 in0.0 mm
07:30 AM 30.0°F-1.1°C 27.2°F-2.7°C 89% Calm Calm -- 29.33 in993.2 mb - 0.00 in0.0 mm 0.00 in0.0 mm
07:35 AM 29.8°F-1.2°C 27.0°F-2.8°C 89% Calm Calm -- 29.34 in993.6 mb - 0.00 in0.0 mm 0.00 in0.0 mm
07:40 AM 30.0°F-1.1°C 27.2°F-2.7°C 89% 1.2 mph NNW1.9 kmh NNW -- 29.34 in993.6 mb - 0.00 in0.0 mm 0.00 in0.0 mm
07:45 AM 30.0°F-1.1°C 27.2°F-2.7°C 89% Calm Calm -- 29.34 in993.6 mb - 0.00 in0.0 mm 0.00 in0.0 mm
07:50 AM 30.2°F-1.0°C 27.3°F-2.6°C 89% Calm Calm -- 29.34 in993.6 mb - 0.00 in0.0 mm 0.00 in0.0 mm
07:55 AM 30.4°F-0.9°C 27.5°F-2.5°C 89% Calm Calm -- 29.34 in993.6 mb - 0.00 in0.0 mm 0.00 in0.0 mm
08:00 AM 30.6°F-0.8°C 27.7°F-2.4°C 89% 2.3 mph SW3.7 kmh SW 2.3 mph3.7 kmh 29.34 in993.6 mb - 0.01 in0.3 mm 0.01 in0.3 mm
08:10 AM 31.1°F-0.5°C 28.2°F-2.1°C 89% 3.5 mph SSW5.6 kmh SSW 3.5 mph5.6 kmh 29.34 in993.6 mb - 0.01 in0.3 mm 0.01 in0.3 mm
08:15 AM 31.3°F-0.4°C 28.4°F-2.0°C 89% 1.2 mph NNW1.9 kmh NNW 2.3 mph3.7 kmh 29.34 in993.6 mb - 0.01 in0.3 mm 0.01 in0.3 mm
08:20 AM 31.6°F-0.2°C 29.0°F-1.7°C 90% 2.3 mph NNW3.7 kmh NNW 2.3 mph3.7 kmh 29.32 in992.9 mb - 0.01 in0.3 mm 0.01 in0.3 mm
08:25 AM 31.8°F-0.1°C 29.2°F-1.6°C 90% 1.2 mph NW1.9 kmh NW 3.5 mph5.6 kmh 29.32 in992.9 mb - 0.01 in0.3 mm 0.01 in0.3 mm
08:30 AM 32.0°F0.0°C 29.4°F-1.4°C 90% 2.3 mph WSW3.7 kmh WSW 3.5 mph5.6 kmh 29.33 in993.2 mb - 0.01 in0.3 mm 0.01 in0.3 mm
08:35 AM 32.0°F0.0°C 29.4°F-1.4°C 90% 1.2 mph SSW1.9 kmh SSW 2.3 mph3.7 kmh 29.34 in993.6 mb - 0.01 in0.3 mm 0.01 in0.3 mm
08:40 AM 32.0°F0.0°C 29.4°F-1.4°C 90% 3.5 mph SSW5.6 kmh SSW 3.5 mph5.6 kmh 29.34 in993.6 mb - 0.01 in0.3 mm 0.01 in0.3 mm
08:45 AM 32.2°F0.1°C 29.6°F-1.3°C 90% 2.3 mph WSW3.7 kmh WSW 3.5 mph5.6 kmh 29.34 in993.6 mb - 0.01 in0.3 mm 0.01 in0.3 mm
08:50 AM 32.4°F0.2°C 29.8°F-1.2°C 90% 2.3 mph SW3.7 kmh SW 2.3 mph3.7 kmh 29.34 in993.6 mb - 0.01 in0.3 mm 0.01 in0.3 mm
08:55 AM 32.6°F0.3°C 30.0°F-1.1°C 90% 3.5 mph SSW5.6 kmh SSW 3.5 mph5.6 kmh 29.34 in993.6 mb - 0.01 in0.3 mm 0.01 in0.3 mm
09:00 AM 32.7°F0.4°C 29.8°F-1.2°C 89% 4.6 mph WSW7.4 kmh WSW 5.8 mph9.3 kmh 29.34 in993.6 mb - 0.00 in0.0 mm 0.01 in0.3 mm
09:10 AM 32.9°F0.5°C 30.0°F-1.1°C 89% 3.5 mph SW5.6 kmh SW 4.6 mph7.4 kmh 29.34 in993.6 mb - 0.00 in0.0 mm 0.01 in0.3 mm
09:15 AM 33.1°F0.6°C 30.2°F-1.0°C 89% 4.6 mph SW7.4 kmh SW 5.8 mph9.3 kmh 29.34 in993.6 mb - 0.00 in0.0 mm 0.01 in0.3 mm
09:20 AM 33.1°F0.6°C 30.2°F-1.0°C 89% 4.6 mph SW7.4 kmh SW 4.6 mph7.4 kmh 29.34 in993.6 mb - 0.00 in0.0 mm 0.01 in0.3 mm
09:25 AM 33.1°F0.6°C 30.2°F-1.0°C 89% 5.8 mph SSW9.3 kmh SSW 5.8 mph9.3 kmh 29.34 in993.6 mb - 0.00 in0.0 mm 0.01 in0.3 mm
09:30 AM 32.9°F0.5°C 30.0°F-1.1°C 89% 5.8 mph SW9.3 kmh SW 6.9 mph11.1 kmh 29.34 in993.6 mb - 0.00 in0.0 mm 0.01 in0.3 mm
09:35 AM 33.1°F0.6°C 30.2°F-1.0°C 89% 4.6 mph SW7.4 kmh SW 6.9 mph11.1 kmh 29.34 in993.6 mb - 0.00 in0.0 mm 0.01 in0.3 mm
09:40 AM 33.3°F0.7°C 30.1°F-1.1°C 88% 5.8 mph SW9.3 kmh SW 8.1 mph13.0 kmh 29.34 in993.6 mb - 0.00 in0.0 mm 0.01 in0.3 mm
09:45 AM 33.3°F0.7°C 30.1°F-1.1°C 88% 4.6 mph SSW7.4 kmh SSW 4.6 mph7.4 kmh 29.34 in993.6 mb - 0.00 in0.0 mm 0.01 in0.3 mm
09:50 AM 33.3°F0.7°C 30.1°F-1.1°C 88% 5.8 mph SSW9.3 kmh SSW 8.1 mph13.0 kmh 29.33 in993.2 mb - 0.00 in0.0 mm 0.01 in0.3 mm
09:55 AM 33.5°F0.8°C 30.3°F-0.9°C 88% 3.5 mph SSW5.6 kmh SSW 4.6 mph7.4 kmh 29.33 in993.2 mb - 0.00 in0.0 mm 0.01 in0.3 mm
10:00 AM 34.0°F1.1°C 30.8°F-0.7°C 88% 2.3 mph SW3.7 kmh SW 2.3 mph3.7 kmh 29.33 in993.2 mb - 0.00 in0.0 mm 0.01 in0.3 mm
10:10 AM 34.9°F1.6°C 31.7°F-0.2°C 88% 4.6 mph SW7.4 kmh SW 5.8 mph9.3 kmh 29.34 in993.6 mb - 0.00 in0.0 mm 0.01 in0.3 mm
10:15 AM 35.2°F1.8°C 32.0°F0.0°C 88% 4.6 mph SW7.4 kmh SW 6.9 mph11.1 kmh 29.34 in993.6 mb - 0.00 in0.0 mm 0.01 in0.3 mm
10:20 AM 35.5°F1.9°C 32.3°F0.2°C 88% 4.6 mph SW7.4 kmh SW 4.6 mph7.4 kmh 29.34 in993.6 mb - 0.00 in0.0 mm 0.01 in0.3 mm
10:25 AM 35.6°F2.0°C 32.1°F0.1°C 87% 3.5 mph SW5.6 kmh SW 3.5 mph5.6 kmh 29.34 in993.6 mb - 0.00 in0.0 mm 0.01 in0.3 mm
10:30 AM 35.8°F2.1°C 32.3°F0.2°C 87% 3.5 mph SW5.6 kmh SW 3.5 mph5.6 kmh 29.34 in993.6 mb - 0.00 in0.0 mm 0.01 in0.3 mm
10:35 AM 36.1°F2.3°C 32.6°F0.3°C 87% 3.5 mph SSW5.6 kmh SSW 3.5 mph5.6 kmh 29.34 in993.6 mb - 0.00 in0.0 mm 0.01 in0.3 mm
10:40 AM 36.5°F2.5°C 32.7°F0.4°C 86% 2.3 mph SSW3.7 kmh SSW 3.5 mph5.6 kmh 29.34 in993.6 mb - 0.00 in0.0 mm 0.01 in0.3 mm
10:45 AM 36.8°F2.7°C 33.0°F0.6°C 86% 3.5 mph SSW5.6 kmh SSW 3.5 mph5.6 kmh 29.34 in993.6 mb - 0.00 in0.0 mm 0.01 in0.3 mm
10:50 AM 37.1°F2.8°C 33.3°F0.7°C 86% 3.5 mph SSW5.6 kmh SSW 3.5 mph5.6 kmh 29.33 in993.2 mb - 0.00 in0.0 mm 0.01 in0.3 mm
10:55 AM 37.4°F3.0°C 33.0°F0.6°C 84% 2.3 mph WSW3.7 kmh WSW 3.5 mph5.6 kmh 29.33 in993.2 mb - 0.00 in0.0 mm 0.01 in0.3 mm
11:00 AM 37.6°F3.1°C 33.2°F0.7°C 84% 2.3 mph SW3.7 kmh SW 2.3 mph3.7 kmh 29.33 in993.2 mb - 0.00 in0.0 mm 0.01 in0.3 mm
11:10 AM 38.8°F3.8°C 34.1°F1.2°C 83% 3.5 mph S5.6 kmh S 3.5 mph5.6 kmh 29.33 in993.2 mb - 0.00 in0.0 mm 0.01 in0.3 mm
11:15 AM 39.7°F4.3°C 34.6°F1.4°C 82% 3.5 mph SSW5.6 kmh SSW 3.5 mph5.6 kmh 29.33 in993.2 mb - 0.00 in0.0 mm 0.01 in0.3 mm
11:20 AM 40.1°F4.5°C 34.7°F1.5°C 81% 5.8 mph SSW9.3 kmh SSW 6.9 mph11.1 kmh 29.32 in992.9 mb - 0.00 in0.0 mm 0.01 in0.3 mm
11:25 AM 39.7°F4.3°C 34.1°F1.2°C 80% 3.5 mph SSW5.6 kmh SSW 4.6 mph7.4 kmh 29.32 in992.9 mb - 0.00 in0.0 mm 0.01 in0.3 mm
11:30 AM 39.7°F4.3°C 34.4°F1.3°C 81% 4.6 mph SSW7.4 kmh SSW 4.6 mph7.4 kmh 29.32 in992.9 mb - 0.00 in0.0 mm 0.01 in0.3 mm
11:35 AM 39.6°F4.2°C 33.9°F1.1°C 80% 4.6 mph WSW7.4 kmh WSW 4.6 mph7.4 kmh 29.31 in992.6 mb - 0.00 in0.0 mm 0.01 in0.3 mm
11:40 AM 39.6°F4.2°C 33.9°F1.1°C 80% 2.3 mph SW3.7 kmh SW 3.5 mph5.6 kmh 29.31 in992.6 mb - 0.00 in0.0 mm 0.01 in0.3 mm
11:45 AM 39.4°F4.1°C 33.7°F0.9°C 80% 3.5 mph SSW5.6 kmh SSW 3.5 mph5.6 kmh 29.32 in992.9 mb - 0.00 in0.0 mm 0.01 in0.3 mm
11:50 AM 39.6°F4.2°C 33.6°F0.9°C 79% 2.3 mph SSW3.7 kmh SSW 2.3 mph3.7 kmh 29.32 in992.9 mb - 0.00 in0.0 mm 0.01 in0.3 mm
11:55 AM 39.7°F4.3°C 33.8°F1.0°C 79% 3.5 mph SSW5.6 kmh SSW 3.5 mph5.6 kmh 29.32 in992.9 mb - 0.00 in0.0 mm 0.01 in0.3 mm
12:00 PM 39.9°F4.4°C 33.9°F1.1°C 79% 2.3 mph SSW3.7 kmh SSW 3.5 mph5.6 kmh 29.31 in992.6 mb - 0.00 in0.0 mm 0.01 in0.3 mm
12:10 PM 40.3°F4.6°C 34.3°F1.3°C 79% 3.5 mph SSW5.6 kmh SSW 3.5 mph5.6 kmh 29.31 in992.6 mb - 0.00 in0.0 mm 0.01 in0.3 mm
12:15 PM 41.1°F5.1°C 35.0°F1.7°C 79% 2.3 mph S3.7 kmh S 2.3 mph3.7 kmh 29.31 in992.6 mb - 0.00 in0.0 mm 0.01 in0.3 mm
12:20 PM 41.5°F5.3°C 35.2°F1.8°C 78% 3.5 mph SSW5.6 kmh SSW 3.5 mph5.6 kmh 29.31 in992.6 mb - 0.00 in0.0 mm 0.01 in0.3 mm
12:25 PM 41.2°F5.1°C 34.8°F1.6°C 78% 3.5 mph SSW5.6 kmh SSW 4.6 mph7.4 kmh 29.31 in992.6 mb - 0.00 in0.0 mm 0.01 in0.3 mm
12:30 PM 41.2°F5.1°C 34.2°F1.2°C 76% 2.3 mph SSW3.7 kmh SSW 2.3 mph3.7 kmh 29.31 in992.6 mb - 0.00 in0.0 mm 0.01 in0.3 mm
12:35 PM 41.2°F5.1°C 34.2°F1.2°C 76% 3.5 mph SSW5.6 kmh SSW 3.5 mph5.6 kmh 29.31 in992.6 mb - 0.00 in0.0 mm 0.01 in0.3 mm
12:40 PM 41.0°F5.0°C 34.0°F1.1°C 76% 1.2 mph SSW1.9 kmh SSW 2.3 mph3.7 kmh 29.31 in992.6 mb - 0.00 in0.0 mm 0.01 in0.3 mm
12:45 PM 41.2°F5.1°C 34.2°F1.2°C 76% 2.3 mph SSW3.7 kmh SSW 3.5 mph5.6 kmh 29.31 in992.6 mb - 0.00 in0.0 mm 0.01 in0.3 mm
12:50 PM 41.2°F5.1°C 34.2°F1.2°C 76% 1.2 mph SSW1.9 kmh SSW 2.3 mph3.7 kmh 29.31 in992.6 mb - 0.00 in0.0 mm 0.01 in0.3 mm
12:55 PM 41.4°F5.2°C 34.4°F1.3°C 76% 1.2 mph WSW1.9 kmh WSW 2.3 mph3.7 kmh 29.31 in992.6 mb - 0.00 in0.0 mm 0.01 in0.3 mm
01:00 PM 41.2°F5.1°C 33.9°F1.1°C 75% 1.2 mph WNW1.9 kmh WNW 2.3 mph3.7 kmh 29.31 in992.6 mb - 0.00 in0.0 mm 0.01 in0.3 mm
01:10 PM 40.9°F4.9°C 33.2°F0.7°C 74% 3.5 mph WNW5.6 kmh WNW 4.6 mph7.4 kmh 29.31 in992.6 mb - 0.00 in0.0 mm 0.01 in0.3 mm
01:15 PM 40.5°F4.7°C 33.2°F0.7°C 75% 2.3 mph W3.7 kmh W 3.5 mph5.6 kmh 29.31 in992.6 mb - 0.00 in0.0 mm 0.01 in0.3 mm
01:20 PM 40.5°F4.7°C 33.2°F0.7°C 75% 3.5 mph WNW5.6 kmh WNW 3.5 mph5.6 kmh 29.31 in992.6 mb - 0.00 in0.0 mm 0.01 in0.3 mm
01:25 PM 40.5°F4.7°C 33.2°F0.7°C 75% 1.2 mph W1.9 kmh W 2.3 mph3.7 kmh 29.31 in992.6 mb - 0.00 in0.0 mm 0.01 in0.3 mm
01:30 PM 40.5°F4.7°C 33.2°F0.7°C 75% 1.2 mph WNW1.9 kmh WNW 3.5 mph5.6 kmh 29.31 in992.6 mb - 0.00 in0.0 mm 0.01 in0.3 mm
01:35 PM 40.5°F4.7°C 33.2°F0.7°C 75% 2.3 mph WNW3.7 kmh WNW 2.3 mph3.7 kmh 29.31 in992.6 mb - 0.00 in0.0 mm 0.01 in0.3 mm
01:40 PM 40.5°F4.7°C 32.8°F0.4°C 74% 2.3 mph WSW3.7 kmh WSW 3.5 mph5.6 kmh 29.31 in992.6 mb - 0.00 in0.0 mm 0.01 in0.3 mm
01:45 PM 40.1°F4.5°C 32.5°F0.3°C 74% 2.3 mph WNW3.7 kmh WNW 2.3 mph3.7 kmh 29.31 in992.6 mb - 0.00 in0.0 mm 0.01 in0.3 mm
01:50 PM 40.1°F4.5°C 32.8°F0.4°C 75% 2.3 mph WNW3.7 kmh WNW 2.3 mph3.7 kmh 29.31 in992.6 mb - 0.00 in0.0 mm 0.01 in0.3 mm
01:55 PM 39.9°F4.4°C 32.3°F0.2°C 74% 2.3 mph WNW3.7 kmh WNW 3.5 mph5.6 kmh 29.31 in992.6 mb - 0.00 in0.0 mm 0.01 in0.3 mm
02:00 PM 39.7°F4.3°C 32.5°F0.3°C 75% 1.2 mph WNW1.9 kmh WNW -- 29.31 in992.6 mb - 0.00 in0.0 mm 0.01 in0.3 mm
02:10 PM 39.4°F4.1°C 32.1°F0.1°C 75% 2.3 mph WNW3.7 kmh WNW 2.3 mph3.7 kmh 29.31 in992.6 mb - 0.00 in0.0 mm 0.01 in0.3 mm
02:15 PM 39.3°F4.1°C 32.0°F0.0°C 75% 2.3 mph NW3.7 kmh NW 2.3 mph3.7 kmh 29.31 in992.6 mb - 0.00 in0.0 mm 0.01 in0.3 mm
02:20 PM 39.2°F4.0°C 31.9°F-0.1°C 75% 2.3 mph NW3.7 kmh NW 2.3 mph3.7 kmh 29.31 in992.6 mb - 0.00 in0.0 mm 0.01 in0.3 mm
02:25 PM 39.2°F4.0°C 31.9°F-0.1°C 75% Calm Calm -- 29.31 in992.6 mb - 0.00 in0.0 mm 0.01 in0.3 mm
02:30 PM 39.2°F4.0°C 32.3°F0.2°C 76% Calm Calm -- 29.31 in992.6 mb - 0.00 in0.0 mm 0.01 in0.3 mm
02:35 PM 39.2°F4.0°C 32.3°F0.2°C 76% Calm Calm -- 29.31 in992.6 mb - 0.00 in0.0 mm 0.01 in0.3 mm
02:40 PM 39.0°F3.9°C 31.8°F-0.1°C 75% 2.3 mph NW3.7 kmh NW 2.3 mph3.7 kmh 29.31 in992.6 mb - 0.00 in0.0 mm 0.01 in0.3 mm
02:45 PM 38.8°F3.8°C 31.6°F-0.2°C 75% 2.3 mph NW3.7 kmh NW 2.3 mph3.7 kmh 29.31 in992.6 mb - 0.00 in0.0 mm 0.01 in0.3 mm
02:50 PM 38.8°F3.8°C 31.6°F-0.2°C 75% 2.3 mph NW3.7 kmh NW 3.5 mph5.6 kmh 29.31 in992.6 mb - 0.00 in0.0 mm 0.01 in0.3 mm
02:55 PM 38.8°F3.8°C 31.3°F-0.4°C 74% 1.2 mph NNW1.9 kmh NNW 2.3 mph3.7 kmh 29.31 in992.6 mb - 0.00 in0.0 mm 0.01 in0.3 mm
03:00 PM 38.8°F3.8°C 31.6°F-0.2°C 75% 2.3 mph SW3.7 kmh SW 2.3 mph3.7 kmh 29.31 in992.6 mb - 0.00 in0.0 mm 0.01 in0.3 mm
03:10 PM 38.3°F3.5°C 31.4°F-0.3°C 76% 3.5 mph SSW5.6 kmh SSW 3.5 mph5.6 kmh 29.31 in992.6 mb - 0.00 in0.0 mm 0.01 in0.3 mm
03:15 PM 37.9°F3.3°C 31.0°F-0.6°C 76% 3.5 mph SSW5.6 kmh SSW 3.5 mph5.6 kmh 29.31 in992.6 mb - 0.00 in0.0 mm 0.01 in0.3 mm
03:20 PM 37.4°F3.0°C 30.5°F-0.8°C 76% 4.6 mph SSW7.4 kmh SSW 4.6 mph7.4 kmh 29.31 in992.6 mb - 0.00 in0.0 mm 0.01 in0.3 mm
03:25 PM 36.9°F2.7°C 30.6°F-0.8°C 78% Calm Calm 2.3 mph3.7 kmh 29.31 in992.6 mb - 0.00 in0.0 mm 0.01 in0.3 mm
03:30 PM 36.5°F2.5°C 30.6°F-0.8°C 79% 2.3 mph SSW3.7 kmh SSW 3.5 mph5.6 kmh 29.32 in992.9 mb - 0.00 in0.0 mm 0.01 in0.3 mm
03:35 PM 36.3°F2.4°C 30.4°F-0.9°C 79% 2.3 mph SSW3.7 kmh SSW 2.3 mph3.7 kmh 29.32 in992.9 mb - 0.00 in0.0 mm 0.01 in0.3 mm
03:40 PM 35.8°F2.1°C 29.9°F-1.2°C 79% 3.5 mph SSW5.6 kmh SSW 3.5 mph5.6 kmh 29.32 in992.9 mb - 0.00 in0.0 mm 0.01 in0.3 mm
03:45 PM 35.6°F2.0°C 29.7°F-1.3°C 79% 2.3 mph SSW3.7 kmh SSW 2.3 mph3.7 kmh 29.32 in992.9 mb - 0.00 in0.0 mm 0.01 in0.3 mm
03:50 PM 35.4°F1.9°C 29.5°F-1.4°C 79% 2.3 mph SSW3.7 kmh SSW 3.5 mph5.6 kmh 29.32 in992.9 mb - 0.00 in0.0 mm 0.01 in0.3 mm
03:55 PM 35.2°F1.8°C 29.7°F-1.3°C 80% 3.5 mph SSW5.6 kmh SSW 3.5 mph5.6 kmh 29.32 in992.9 mb - 0.00 in0.0 mm 0.01 in0.3 mm
04:00 PM 35.1°F1.7°C 29.5°F-1.4°C 80% 2.3 mph SSW3.7 kmh SSW 3.5 mph5.6 kmh 29.32 in992.9 mb - 0.00 in0.0 mm 0.01 in0.3 mm
04:10 PM 34.8°F1.6°C 29.5°F-1.4°C 81% 3.5 mph WSW5.6 kmh WSW 3.5 mph5.6 kmh 29.33 in993.2 mb - 0.00 in0.0 mm 0.01 in0.3 mm
04:15 PM 34.7°F1.5°C 29.5°F-1.4°C 81% 1.2 mph WNW1.9 kmh WNW 1.2 mph1.9 kmh 29.33 in993.2 mb - 0.00 in0.0 mm 0.01 in0.3 mm
04:20 PM 34.5°F1.4°C 29.3°F-1.5°C 81% 1.2 mph WSW1.9 kmh WSW 2.3 mph3.7 kmh 29.33 in993.2 mb - 0.00 in0.0 mm 0.01 in0.3 mm
04:25 PM 34.5°F1.4°C 29.3°F-1.5°C 81% 1.2 mph SSW1.9 kmh SSW 1.2 mph1.9 kmh 29.33 in993.2 mb - 0.00 in0.0 mm 0.01 in0.3 mm
04:30 PM 34.3°F1.3°C 29.1°F-1.6°C 81% 3.5 mph SW5.6 kmh SW 3.5 mph5.6 kmh 29.33 in993.2 mb - 0.00 in0.0 mm 0.01 in0.3 mm
04:35 PM 34.2°F1.2°C 29.2°F-1.6°C 82% 3.5 mph SSW5.6 kmh SSW 4.6 mph7.4 kmh 29.34 in993.6 mb - 0.00 in0.0 mm 0.01 in0.3 mm
04:40 PM 34.0°F1.1°C 29.4°F-1.4°C 83% 4.6 mph SSW7.4 kmh SSW 4.6 mph7.4 kmh 29.34 in993.6 mb - 0.00 in0.0 mm 0.01 in0.3 mm
04:45 PM 33.8°F1.0°C 29.2°F-1.6°C 83% 4.6 mph SSW7.4 kmh SSW 5.8 mph9.3 kmh 29.34 in993.6 mb - 0.00 in0.0 mm 0.01 in0.3 mm
04:50 PM 33.8°F1.0°C 29.2°F-1.6°C 83% 2.3 mph SW3.7 kmh SW 3.5 mph5.6 kmh 29.34 in993.6 mb - 0.00 in0.0 mm 0.01 in0.3 mm
04:55 PM 33.6°F0.9°C 29.0°F-1.7°C 83% 2.3 mph SSW3.7 kmh SSW 3.5 mph5.6 kmh 29.34 in993.6 mb - 0.00 in0.0 mm 0.01 in0.3 mm
05:00 PM 33.4°F0.8°C 28.8°F-1.8°C 83% 1.2 mph SSW1.9 kmh SSW 2.3 mph3.7 kmh 29.34 in993.6 mb - 0.00 in0.0 mm 0.01 in0.3 mm
05:10 PM 33.3°F0.7°C 28.7°F-1.8°C 83% 2.3 mph SSW3.7 kmh SSW 2.3 mph3.7 kmh 29.34 in993.6 mb - 0.00 in0.0 mm 0.01 in0.3 mm
05:15 PM 33.3°F0.7°C 28.7°F-1.8°C 83% 1.2 mph SSW1.9 kmh SSW 2.3 mph3.7 kmh 29.34 in993.6 mb - 0.00 in0.0 mm 0.01 in0.3 mm
05:20 PM 33.3°F0.7°C 28.7°F-1.8°C 83% 1.2 mph SSW1.9 kmh SSW 1.2 mph1.9 kmh 29.35 in993.9 mb - 0.00 in0.0 mm 0.01 in0.3 mm
05:25 PM 33.3°F0.7°C 28.7°F-1.8°C 83% Calm Calm -- 29.35 in993.9 mb - 0.00 in0.0 mm 0.01 in0.3 mm
05:30 PM 33.1°F0.6°C 28.5°F-1.9°C 83% Calm Calm -- 29.35 in993.9 mb - 0.00 in0.0 mm 0.01 in0.3 mm
05:35 PM 32.9°F0.5°C 28.6°F-1.9°C 84% 2.3 mph SSW3.7 kmh SSW 2.3 mph3.7 kmh 29.35 in993.9 mb - 0.00 in0.0 mm 0.01 in0.3 mm
05:40 PM 32.7°F0.4°C 28.4°F-2.0°C 84% 1.2 mph WNW1.9 kmh WNW 1.2 mph1.9 kmh 29.35 in993.9 mb - 0.00 in0.0 mm 0.01 in0.3 mm
05:45 PM 32.9°F0.5°C 28.6°F-1.9°C 84% Calm Calm 1.2 mph1.9 kmh 29.35 in993.9 mb - 0.00 in0.0 mm 0.01 in0.3 mm
05:50 PM 32.9°F0.5°C 28.6°F-1.9°C 84% Calm Calm 1.2 mph1.9 kmh 29.35 in993.9 mb - 0.00 in0.0 mm 0.01 in0.3 mm
05:55 PM 32.9°F0.5°C 28.3°F-2.1°C 83% Calm Calm 1.2 mph1.9 kmh 29.35 in993.9 mb - 0.00 in0.0 mm 0.01 in0.3 mm
06:00 PM 32.7°F0.4°C 28.4°F-2.0°C 84% 2.3 mph WNW3.7 kmh WNW 2.3 mph3.7 kmh 29.35 in993.9 mb - 0.00 in0.0 mm 0.01 in0.3 mm
06:10 PM 32.7°F0.4°C 28.4°F-2.0°C 84% 2.3 mph WNW3.7 kmh WNW 3.5 mph5.6 kmh 29.35 in993.9 mb - 0.00 in0.0 mm 0.01 in0.3 mm
06:15 PM 32.7°F0.4°C 28.7°F-1.8°C 85% 2.3 mph WNW3.7 kmh WNW 3.5 mph5.6 kmh 29.35 in993.9 mb - 0.00 in0.0 mm 0.01 in0.3 mm
06:20 PM 32.7°F0.4°C 29.0°F-1.7°C 86% 2.3 mph WNW3.7 kmh WNW 3.5 mph5.6 kmh 29.35 in993.9 mb - 0.00 in0.0 mm 0.01 in0.3 mm
06:25 PM 32.9°F0.5°C 29.2°F-1.6°C 86% 2.3 mph WNW3.7 kmh WNW 2.3 mph3.7 kmh 29.35 in993.9 mb - 0.00 in0.0 mm 0.01 in0.3 mm
06:30 PM 32.9°F0.5°C 29.2°F-1.6°C 86% 1.2 mph WNW1.9 kmh WNW 2.3 mph3.7 kmh 29.35 in993.9 mb - 0.00 in0.0 mm 0.01 in0.3 mm
06:35 PM 32.9°F0.5°C 29.2°F-1.6°C 86% 2.3 mph WNW3.7 kmh WNW 2.3 mph3.7 kmh 29.36 in994.2 mb - 0.00 in0.0 mm 0.01 in0.3 mm
06:40 PM 32.9°F0.5°C 29.2°F-1.6°C 86% 2.3 mph WNW3.7 kmh WNW 3.5 mph5.6 kmh 29.36 in994.2 mb - 0.00 in0.0 mm 0.01 in0.3 mm
06:45 PM 32.9°F0.5°C 28.6°F-1.9°C 84% Calm Calm -- 29.36 in994.2 mb - 0.00 in0.0 mm 0.01 in0.3 mm
06:50 PM 32.7°F0.4°C 28.4°F-2.0°C 84% 1.2 mph S1.9 kmh S 2.3 mph3.7 kmh 29.36 in994.2 mb - 0.00 in0.0 mm 0.01 in0.3 mm
06:55 PM 32.9°F0.5°C 28.6°F-1.9°C 84% 2.3 mph S3.7 kmh S 3.5 mph5.6 kmh 29.36 in994.2 mb - 0.00 in0.0 mm 0.01 in0.3 mm
07:00 PM 33.1°F0.6°C 29.3°F-1.5°C 86% 1.2 mph S1.9 kmh S 1.2 mph1.9 kmh 29.36 in994.2 mb - 0.00 in0.0 mm 0.01 in0.3 mm
07:10 PM 32.9°F0.5°C 29.2°F-1.6°C 86% Calm Calm -- 29.36 in994.2 mb - 0.00 in0.0 mm 0.01 in0.3 mm
07:15 PM 32.9°F0.5°C 29.2°F-1.6°C 86% 2.3 mph ESE3.7 kmh ESE 2.3 mph3.7 kmh 29.37 in994.6 mb - 0.00 in0.0 mm 0.01 in0.3 mm
07:20 PM 32.9°F0.5°C 29.2°F-1.6°C 86% 3.5 mph ESE5.6 kmh ESE 3.5 mph5.6 kmh 29.37 in994.6 mb - 0.00 in0.0 mm 0.01 in0.3 mm
07:25 PM 32.9°F0.5°C 29.2°F-1.6°C 86% 3.5 mph ESE5.6 kmh ESE 3.5 mph5.6 kmh 29.37 in994.6 mb - 0.00 in0.0 mm 0.01 in0.3 mm
07:30 PM 33.1°F0.6°C 29.3°F-1.5°C 86% 1.2 mph SSE1.9 kmh SSE 2.3 mph3.7 kmh 29.37 in994.6 mb - 0.00 in0.0 mm 0.01 in0.3 mm
07:35 PM 32.9°F0.5°C 29.2°F-1.6°C 86% 1.2 mph SE1.9 kmh SE 2.3 mph3.7 kmh 29.37 in994.6 mb - 0.00 in0.0 mm 0.01 in0.3 mm
07:40 PM 33.1°F0.6°C 29.3°F-1.5°C 86% 2.3 mph E3.7 kmh E 2.3 mph3.7 kmh 29.37 in994.6 mb - 0.00 in0.0 mm 0.01 in0.3 mm
07:45 PM 33.3°F0.7°C 29.8°F-1.2°C 87% 1.2 mph ENE1.9 kmh ENE 1.2 mph1.9 kmh 29.37 in994.6 mb - 0.00 in0.0 mm 0.01 in0.3 mm
07:50 PM 33.1°F0.6°C 29.3°F-1.5°C 86% 1.2 mph ENE1.9 kmh ENE 1.2 mph1.9 kmh 29.37 in994.6 mb - 0.00 in0.0 mm 0.01 in0.3 mm
07:55 PM 33.1°F0.6°C 29.3°F-1.5°C 86% 1.2 mph ENE1.9 kmh ENE 1.2 mph1.9 kmh 29.37 in994.6 mb - 0.00 in0.0 mm 0.01 in0.3 mm
08:00 PM 32.9°F0.5°C 29.2°F-1.6°C 86% Calm Calm -- 29.37 in994.6 mb - 0.00 in0.0 mm 0.01 in0.3 mm
08:10 PM 32.9°F0.5°C 29.2°F-1.6°C 86% 3.5 mph ESE5.6 kmh ESE 3.5 mph5.6 kmh 29.38 in994.9 mb - 0.00 in0.0 mm 0.01 in0.3 mm
08:15 PM 32.9°F0.5°C 29.1°F-1.6°C 86% Calm Calm 1.2 mph1.9 kmh 29.38 in994.9 mb - 0.00 in0.0 mm 0.01 in0.3 mm
08:20 PM 32.5°F0.3°C 29.4°F-1.4°C 88% 1.2 mph NNW1.9 kmh NNW 2.3 mph3.7 kmh 29.38 in994.9 mb - 0.00 in0.0 mm 0.01 in0.3 mm
08:25 PM 32.5°F0.3°C 29.4°F-1.4°C 88% Calm Calm 2.3 mph3.7 kmh 29.38 in994.9 mb - 0.00 in0.0 mm 0.01 in0.3 mm
08:30 PM 32.0°F0.0°C 28.9°F-1.7°C 88% 2.3 mph NNW3.7 kmh NNW 2.3 mph3.7 kmh 29.38 in994.9 mb - 0.00 in0.0 mm 0.01 in0.3 mm
08:35 PM 32.0°F0.0°C 28.8°F-1.8°C 88% 1.2 mph NNW1.9 kmh NNW 1.2 mph1.9 kmh 29.37 in994.6 mb - 0.00 in0.0 mm 0.01 in0.3 mm
08:40 PM 31.8°F-0.1°C 28.4°F-2.0°C 87% Calm Calm -- 29.37 in994.6 mb - 0.00 in0.0 mm 0.01 in0.3 mm
08:45 PM 31.8°F-0.1°C 28.4°F-2.0°C 87% Calm Calm 1.2 mph1.9 kmh 29.37 in994.6 mb - 0.00 in0.0 mm 0.01 in0.3 mm
08:50 PM 31.5°F-0.3°C 28.0°F-2.2°C 87% Calm Calm -- 29.37 in994.6 mb - 0.00 in0.0 mm 0.01 in0.3 mm
08:55 PM 31.3°F-0.4°C 27.9°F-2.3°C 87% Calm Calm -- 29.37 in994.6 mb - 0.00 in0.0 mm 0.01 in0.3 mm
09:00 PM 30.9°F-0.6°C 27.2°F-2.7°C 86% Calm Calm -- 29.37 in994.6 mb - 0.00 in0.0 mm 0.01 in0.3 mm
09:10 PM 29.8°F-1.2°C 26.4°F-3.1°C 87% 1.2 mph NNE1.9 kmh NNE 2.3 mph3.7 kmh 29.38 in994.9 mb - 0.00 in0.0 mm 0.01 in0.3 mm
09:15 PM 29.5°F-1.4°C 26.1°F-3.3°C 87% 2.3 mph NNE3.7 kmh NNE 3.5 mph5.6 kmh 29.38 in994.9 mb - 0.00 in0.0 mm 0.01 in0.3 mm
09:20 PM 29.3°F-1.5°C 25.9°F-3.4°C 87% 2.3 mph NNW3.7 kmh NNW 3.5 mph5.6 kmh 29.38 in994.9 mb - 0.00 in0.0 mm 0.01 in0.3 mm
09:25 PM 29.3°F-1.5°C 26.2°F-3.2°C 88% Calm Calm -- 29.38 in994.9 mb - 0.00 in0.0 mm 0.01 in0.3 mm
09:30 PM 29.3°F-1.5°C 26.2°F-3.2°C 88% Calm Calm -- 29.38 in994.9 mb - 0.00 in0.0 mm 0.01 in0.3 mm
09:35 PM 28.9°F-1.7°C 25.8°F-3.4°C 88% 2.3 mph NW3.7 kmh NW 2.3 mph3.7 kmh 29.39 in995.3 mb - 0.00 in0.0 mm 0.01 in0.3 mm
09:40 PM 28.8°F-1.8°C 25.7°F-3.5°C 88% 2.3 mph NW3.7 kmh NW 2.3 mph3.7 kmh 29.39 in995.3 mb - 0.00 in0.0 mm 0.01 in0.3 mm
09:45 PM 28.9°F-1.7°C 25.8°F-3.4°C 88% 1.2 mph NNW1.9 kmh NNW 1.2 mph1.9 kmh 29.39 in995.3 mb - 0.00 in0.0 mm 0.01 in0.3 mm
09:50 PM 28.6°F-1.9°C 25.5°F-3.6°C 88% Calm Calm 1.2 mph1.9 kmh 29.39 in995.3 mb - 0.00 in0.0 mm 0.01 in0.3 mm
09:55 PM 28.0°F-2.2°C 24.7°F-4.1°C 87% 3.5 mph NNW5.6 kmh NNW 4.6 mph7.4 kmh 29.39 in995.3 mb - 0.00 in0.0 mm 0.01 in0.3 mm
10:00 PM 28.2°F-2.1°C 25.1°F-3.8°C 88% 3.5 mph NNW5.6 kmh NNW 3.5 mph5.6 kmh 29.39 in995.3 mb - 0.00 in0.0 mm 0.01 in0.3 mm
10:10 PM 28.8°F-1.8°C 25.7°F-3.5°C 88% 2.3 mph N3.7 kmh N 2.3 mph3.7 kmh 29.39 in995.3 mb - 0.00 in0.0 mm 0.01 in0.3 mm
10:15 PM 28.8°F-1.8°C 25.9°F-3.4°C 89% 2.3 mph 3.7 kmh 2.3 mph3.7 kmh 29.39 in995.3 mb - 0.00 in0.0 mm 0.01 in0.3 mm
10:20 PM 28.9°F-1.7°C 26.4°F-3.1°C 90% 3.5 mph NNW5.6 kmh NNW 3.5 mph5.6 kmh 29.39 in995.3 mb - 0.00 in0.0 mm 0.01 in0.3 mm
10:25 PM 28.8°F-1.8°C 26.5°F-3.1°C 91% 3.5 mph N5.6 kmh N 3.5 mph5.6 kmh 29.39 in995.3 mb - 0.00 in0.0 mm 0.01 in0.3 mm
10:30 PM 28.8°F-1.8°C 26.5°F-3.1°C 91% 2.3 mph NNW3.7 kmh NNW 4.6 mph7.4 kmh 29.39 in995.3 mb - 0.00 in0.0 mm 0.01 in0.3 mm
10:35 PM 28.7°F-1.8°C 26.6°F-3.0°C 92% 2.3 mph NNE3.7 kmh NNE 2.3 mph3.7 kmh 29.39 in995.3 mb - 0.00 in0.0 mm 0.01 in0.3 mm
10:40 PM 28.7°F-1.8°C 26.7°F-2.9°C 92% 2.3 mph NE3.7 kmh NE 3.5 mph5.6 kmh 29.39 in995.3 mb - 0.00 in0.0 mm 0.01 in0.3 mm
10:45 PM 28.6°F-1.9°C 26.6°F-3.0°C 92% 2.3 mph NNW3.7 kmh NNW 3.5 mph5.6 kmh 29.39 in995.3 mb - 0.00 in0.0 mm 0.01 in0.3 mm
10:50 PM 28.6°F-1.9°C 27.1°F-2.7°C 94% 3.5 mph N5.6 kmh N 4.6 mph7.4 kmh 29.39 in995.3 mb - 0.00 in0.0 mm 0.01 in0.3 mm
10:55 PM 28.8°F-1.8°C 27.3°F-2.6°C 94% 3.5 mph NNE5.6 kmh NNE 3.5 mph5.6 kmh 29.39 in995.3 mb - 0.00 in0.0 mm 0.01 in0.3 mm
11:00 PM 28.8°F-1.8°C 27.3°F-2.6°C 94% 3.5 mph NNE5.6 kmh NNE 3.5 mph5.6 kmh 29.39 in995.3 mb - 0.00 in0.0 mm 0.01 in0.3 mm
11:10 PM 28.9°F-1.7°C 27.4°F-2.6°C 94% 2.3 mph NE3.7 kmh NE 3.5 mph5.6 kmh 29.39 in995.3 mb - 0.00 in0.0 mm 0.01 in0.3 mm
11:15 PM 29.1°F-1.6°C 27.6°F-2.4°C 94% 3.5 mph NE5.6 kmh NE 4.6 mph7.4 kmh 29.39 in995.3 mb - 0.00 in0.0 mm 0.01 in0.3 mm
11:20 PM 29.1°F-1.6°C 27.6°F-2.4°C 94% 3.5 mph NNE5.6 kmh NNE 4.6 mph7.4 kmh 29.39 in995.3 mb - 0.00 in0.0 mm 0.01 in0.3 mm
11:25 PM 28.9°F-1.7°C 27.4°F-2.6°C 94% 3.5 mph NE5.6 kmh NE 5.8 mph9.3 kmh 29.39 in995.3 mb - 0.00 in0.0 mm 0.01 in0.3 mm
11:30 PM 28.9°F-1.7°C 27.4°F-2.6°C 94% 3.5 mph NE5.6 kmh NE 4.6 mph7.4 kmh 29.39 in995.3 mb - 0.00 in0.0 mm 0.01 in0.3 mm
11:35 PM 28.8°F-1.8°C 27.3°F-2.6°C 94% 4.6 mph NE7.4 kmh NE 5.8 mph9.3 kmh 29.39 in995.3 mb - 0.00 in0.0 mm 0.01 in0.3 mm
11:40 PM 28.8°F-1.8°C 27.3°F-2.6°C 94% 4.6 mph NE7.4 kmh NE 5.8 mph9.3 kmh 29.39 in995.3 mb - 0.00 in0.0 mm 0.01 in0.3 mm
11:45 PM 28.8°F-1.8°C 27.3°F-2.6°C 94% 3.5 mph NE5.6 kmh NE 4.6 mph7.4 kmh 29.39 in995.3 mb - 0.00 in0.0 mm 0.01 in0.3 mm
11:50 PM 28.6°F-1.9°C 27.1°F-2.7°C 94% 3.5 mph NE5.6 kmh NE 4.6 mph7.4 kmh 29.40 in995.6 mb - 0.00 in0.0 mm 0.01 in0.3 mm
11:55 PM 28.8°F-1.8°C 27.3°F-2.6°C 94% 2.3 mph NNE3.7 kmh NNE 2.3 mph3.7 kmh 29.40 in995.6 mb - 0.00 in0.0 mm 0.01 in0.3 mm